sensor_id;sensor_type;location;lat;lon;timestamp;temperature;humidity
14775;DHT22;7479;47.042;15.160;2022-09-09T06:03:22;15.70;99.90
14775;DHT22;7479;47.042;15.160;2022-09-09T06:25:11;15.70;99.90
14775;DHT22;7479;47.042;15.160;2022-09-09T06:52:53;15.90;99.90
14775;DHT22;7479;47.042;15.160;2022-09-09T06:57:47;16.00;99.90
14775;DHT22;7479;47.042;15.160;2022-09-09T07:26:39;16.90;99.90
14775;DHT22;7479;47.042;15.160;2022-09-09T07:31:34;16.80;99.90
14775;DHT22;7479;47.042;15.160;2022-09-09T08:02:14;16.70;99.90
14775;DHT22;7479;47.042;15.160;2022-09-09T08:07:09;16.80;99.90
14775;DHT22;7479;47.042;15.160;2022-09-09T08:12:14;16.90;99.90
14775;DHT22;7479;47.042;15.160;2022-09-09T08:17:08;16.90;99.90
14775;DHT22;7479;47.042;15.160;2022-09-09T08:22:04;17.00;99.90
14775;DHT22;7479;47.042;15.160;2022-09-09T08:26:59;17.10;99.90
14775;DHT22;7479;47.042;15.160;2022-09-09T08:31:55;17.10;99.90
14775;DHT22;7479;47.042;15.160;2022-09-09T08:36:51;17.10;99.90
14775;DHT22;7479;47.042;15.160;2022-09-09T08:42:13;17.00;99.90
14775;DHT22;7479;47.042;15.160;2022-09-09T08:47:16;17.00;99.90
14775;DHT22;7479;47.042;15.160;2022-09-09T08:52:16;17.20;99.90
14775;DHT22;7479;47.042;15.160;2022-09-09T08:57:17;17.30;99.90
14775;DHT22;7479;47.042;15.160;2022-09-09T09:02:17;17.40;99.90
14775;DHT22;7479;47.042;15.160;2022-09-09T09:07:24;17.50;99.90
14775;DHT22;7479;47.042;15.160;2022-09-09T09:12:28;17.50;99.90
14775;DHT22;7479;47.042;15.160;2022-09-09T09:17:25;17.60;99.90
14775;DHT22;7479;47.042;15.160;2022-09-09T09:22:28;17.80;99.90
14775;DHT22;7479;47.042;15.160;2022-09-09T09:27:33;18.10;99.90
14775;DHT22;7479;47.042;15.160;2022-09-09T09:32:35;18.50;99.90
14775;DHT22;7479;47.042;15.160;2022-09-09T09:37:32;19.00;99.90
14775;DHT22;7479;47.042;15.160;2022-09-09T09:42:32;19.50;99.90
14775;DHT22;7479;47.042;15.160;2022-09-09T09:47:25;19.90;99.90
14775;DHT22;7479;47.042;15.160;2022-09-09T09:52:35;20.10;99.90
14775;DHT22;7479;47.042;15.160;2022-09-09T09:57:33;20.30;99.90
14775;DHT22;7479;47.042;15.160;2022-09-09T10:02:38;20.60;99.90
14775;DHT22;7479;47.042;15.160;2022-09-09T10:07:34;20.90;99.90
14775;DHT22;7479;47.042;15.160;2022-09-09T10:12:39;21.50;99.90
14775;DHT22;7479;47.042;15.160;2022-09-09T10:17:40;21.90;99.90
14775;DHT22;7479;47.042;15.160;2022-09-09T10:22:39;21.90;99.90
14775;DHT22;7479;47.042;15.160;2022-09-09T10:27:47;21.70;99.90
14775;DHT22;7479;47.042;15.160;2022-09-09T10:33:00;21.70;99.90
14775;DHT22;7479;47.042;15.160;2022-09-09T10:38:16;21.60;99.90
14775;DHT22;7479;47.042;15.160;2022-09-09T10:43:21;21.10;99.90
14775;DHT22;7479;47.042;15.160;2022-09-09T10:48:40;20.80;99.90
14775;DHT22;7479;47.042;15.160;2022-09-09T10:53:39;20.40;99.90
14775;DHT22;7479;47.042;15.160;2022-09-09T10:58:42;20.30;99.90
14775;DHT22;7479;47.042;15.160;2022-09-09T11:03:40;20.30;99.90
14775;DHT22;7479;47.042;15.160;2022-09-09T11:08:37;20.30;99.90
14775;DHT22;7479;47.042;15.160;2022-09-09T11:13:38;20.20;99.90
14775;DHT22;7479;47.042;15.160;2022-09-09T11:18:39;20.10;99.90
14775;DHT22;7479;47.042;15.160;2022-09-09T11:23:40;20.00;99.90
14775;DHT22;7479;47.042;15.160;2022-09-09T11:28:44;20.10;99.90
14775;DHT22;7479;47.042;15.160;2022-09-09T11:33:58;20.10;99.90
14775;DHT22;7479;47.042;15.160;2022-09-09T11:39:02;20.10;99.90
14775;DHT22;7479;47.042;15.160;2022-09-09T11:44:10;20.20;99.90
14775;DHT22;7479;47.042;15.160;2022-09-09T11:49:21;20.30;99.90
14775;DHT22;7479;47.042;15.160;2022-09-09T11:54:30;20.60;99.90
14775;DHT22;7479;47.042;15.160;2022-09-09T11:59:26;20.70;99.90
14775;DHT22;7479;47.042;15.160;2022-09-09T12:04:37;20.60;99.90
14775;DHT22;7479;47.042;15.160;2022-09-09T12:09:54;20.40;99.90
14775;DHT22;7479;47.042;15.160;2022-09-09T12:15:24;20.50;99.90
14775;DHT22;7479;47.042;15.160;2022-09-09T12:20:23;20.60;99.90
14775;DHT22;7479;47.042;15.160;2022-09-09T12:25:26;20.70;99.90
14775;DHT22;7479;47.042;15.160;2022-09-09T12:30:22;20.70;99.90
14775;DHT22;7479;47.042;15.160;2022-09-09T12:35:22;20.60;99.90
14775;DHT22;7479;47.042;15.160;2022-09-09T12:40:21;20.60;99.90
14775;DHT22;7479;47.042;15.160;2022-09-09T12:45:17;20.60;99.90
14775;DHT22;7479;47.042;15.160;2022-09-09T12:50:17;20.60;99.90
14775;DHT22;7479;47.042;15.160;2022-09-09T12:55:18;20.50;99.90
14775;DHT22;7479;47.042;15.160;2022-09-09T13:00:18;20.40;99.90
14775;DHT22;7479;47.042;15.160;2022-09-09T13:05:17;20.30;99.90
14775;DHT22;7479;47.042;15.160;2022-09-09T13:10:14;20.30;99.90
14775;DHT22;7479;47.042;15.160;2022-09-09T13:15:29;20.20;99.90
14775;DHT22;7479;47.042;15.160;2022-09-09T13:20:24;20.10;99.90
14775;DHT22;7479;47.042;15.160;2022-09-09T13:25:20;20.20;99.90
14775;DHT22;7479;47.042;15.160;2022-09-09T13:30:21;20.20;99.90
14775;DHT22;7479;47.042;15.160;2022-09-09T13:35:24;20.20;99.90
14775;DHT22;7479;47.042;15.160;2022-09-09T13:40:20;20.20;99.90
14775;DHT22;7479;47.042;15.160;2022-09-09T13:45:16;20.50;99.90
14775;DHT22;7479;47.042;15.160;2022-09-09T13:50:19;20.90;99.90
14775;DHT22;7479;47.042;15.160;2022-09-09T13:55:15;21.50;99.90
14775;DHT22;7479;47.042;15.160;2022-09-09T14:00:11;21.50;99.90
14775;DHT22;7479;47.042;15.160;2022-09-09T14:05:06;21.40;99.90
14775;DHT22;7479;47.042;15.160;2022-09-09T14:10:00;21.10;99.90
14775;DHT22;7479;47.042;15.160;2022-09-09T14:14:55;21.00;99.90
14775;DHT22;7479;47.042;15.160;2022-09-09T14:19:49;20.90;99.90
14775;DHT22;7479;47.042;15.160;2022-09-09T14:24:43;20.90;99.90
14775;DHT22;7479;47.042;15.160;2022-09-09T14:29:36;20.80;99.90
14775;DHT22;7479;47.042;15.160;2022-09-09T14:34:32;20.70;99.90
14775;DHT22;7479;47.042;15.160;2022-09-09T14:39:25;20.50;99.90
14775;DHT22;7479;47.042;15.160;2022-09-09T14:44:19;20.50;99.90
14775;DHT22;7479;47.042;15.160;2022-09-09T14:49:12;20.30;99.90
14775;DHT22;7479;47.042;15.160;2022-09-09T14:54:08;20.30;99.90
14775;DHT22;7479;47.042;15.160;2022-09-09T14:59:03;20.20;99.90
14775;DHT22;7479;47.042;15.160;2022-09-09T15:03:58;23.00;99.90
14775;DHT22;7479;47.042;15.160;2022-09-09T15:08:53;27.80;99.90
14775;DHT22;7479;47.042;15.160;2022-09-09T15:13:52;26.30;98.60
14775;DHT22;7479;47.042;15.160;2022-09-09T15:18:47;27.30;97.30
14775;DHT22;7479;47.042;15.160;2022-09-09T15:23:43;25.10;99.90
14775;DHT22;7479;47.042;15.160;2022-09-09T15:28:38;23.50;99.90
14775;DHT22;7479;47.042;15.160;2022-09-09T15:33:33;22.50;99.90
14775;DHT22;7479;47.042;15.160;2022-09-09T15:38:31;21.80;99.90
14775;DHT22;7479;47.042;15.160;2022-09-09T15:43:24;21.40;99.90
14775;DHT22;7479;47.042;15.160;2022-09-09T15:48:18;21.10;99.90
14775;DHT22;7479;47.042;15.160;2022-09-09T15:53:13;21.00;99.90
14775;DHT22;7479;47.042;15.160;2022-09-09T15:58:06;21.00;99.90
14775;DHT22;7479;47.042;15.160;2022-09-09T16:03:00;21.20;99.90
14775;DHT22;7479;47.042;15.160;2022-09-09T16:07:53;21.40;99.90
14775;DHT22;7479;47.042;15.160;2022-09-09T16:12:48;21.90;99.90
14775;DHT22;7479;47.042;15.160;2022-09-09T16:17:43;23.10;99.90
14775;DHT22;7479;47.042;15.160;2022-09-09T16:22:38;22.50;99.90
14775;DHT22;7479;47.042;15.160;2022-09-09T16:27:32;21.60;99.90
14775;DHT22;7479;47.042;15.160;2022-09-09T16:32:27;21.00;99.90
14775;DHT22;7479;47.042;15.160;2022-09-09T16:37:21;20.70;99.90
14775;DHT22;7479;47.042;15.160;2022-09-09T16:42:15;20.50;99.90
14775;DHT22;7479;47.042;15.160;2022-09-09T16:47:09;20.30;99.90
14775;DHT22;7479;47.042;15.160;2022-09-09T16:52:04;20.20;99.90
14775;DHT22;7479;47.042;15.160;2022-09-09T16:56:59;20.10;99.90
